createdAt,value
2023-01-19T00:01:04.416Z,4.59
2023-01-19T00:04:59.613Z,4.45
2023-01-19T00:08:52.137Z,4.44
2023-01-19T00:12:44.954Z,4.35
2023-01-19T00:16:37.586Z,4.44
2023-01-19T00:20:33.001Z,4.31
2023-01-19T00:24:25.661Z,4.38
2023-01-19T00:28:19.350Z,4.18
2023-01-19T00:32:12.255Z,4.17
2023-01-19T00:36:05.454Z,4.14
2023-01-19T00:39:59.983Z,4.21
2023-01-19T00:43:52.749Z,4.07
2023-01-19T00:47:46.709Z,4.24
2023-01-19T00:51:39.689Z,4.08
2023-01-19T00:55:33.729Z,4.17
2023-01-19T00:59:26.592Z,4.27
2023-01-19T01:03:19.392Z,4.05
2023-01-19T01:07:12.198Z,4.01
2023-01-19T01:11:05.356Z,3.98
2023-01-19T01:14:58.304Z,3.97
2023-01-19T01:18:50.931Z,3.77
2023-01-19T01:22:49.698Z,3.80
2023-01-19T01:26:42.573Z,3.69
2023-01-19T01:30:40.150Z,3.73
2023-01-19T01:34:33.192Z,3.58
2023-01-19T01:38:25.784Z,3.49
2023-01-19T01:42:20.825Z,3.53
2023-01-19T01:46:15.772Z,3.59
2023-01-19T01:50:11.223Z,3.53
2023-01-19T01:54:08.863Z,3.55
2023-01-19T01:58:05.285Z,3.46
2023-01-19T02:02:20.492Z,3.46
2023-01-19T02:06:15.055Z,3.45
2023-01-19T02:10:27.444Z,3.55
2023-01-19T02:14:20.188Z,3.43
2023-01-19T02:18:12.818Z,3.56
2023-01-19T02:22:12.088Z,3.45
2023-01-19T02:26:06.221Z,3.46
2023-01-19T02:30:00.472Z,3.34
2023-01-19T02:33:54.466Z,3.38
2023-01-19T02:37:48.191Z,3.29
2023-01-19T02:41:49.147Z,3.29
2023-01-19T02:45:43.362Z,3.35
2023-01-19T02:49:36.757Z,3.49
2023-01-19T02:53:35.228Z,3.19
2023-01-19T02:57:48.230Z,3.09
2023-01-19T03:01:50.340Z,3.17
2023-01-19T03:05:43.420Z,3.14
2023-01-19T03:09:45.739Z,3.19
2023-01-19T03:13:50.347Z,3.21
2023-01-19T03:17:45.035Z,3.24
2023-01-19T03:21:43.497Z,3.36
2023-01-19T03:25:38.713Z,3.39
2023-01-19T03:29:35.151Z,3.31
2023-01-19T03:33:38.621Z,3.35
2023-01-19T03:37:35.856Z,3.25
2023-01-19T03:41:31.741Z,3.19
2023-01-19T03:45:24.711Z,2.88
2023-01-19T03:49:17.775Z,2.98
2023-01-19T03:53:16.183Z,3.00
2023-01-19T03:57:08.714Z,2.87
2023-01-19T04:01:03.531Z,2.93
2023-01-19T04:04:56.810Z,2.80
2023-01-19T04:08:50.946Z,2.77
2023-01-19T04:12:44.382Z,2.86
2023-01-19T04:16:37.201Z,2.81
2023-01-19T04:20:30.063Z,2.87
2023-01-19T04:24:22.888Z,2.91
2023-01-19T04:28:15.983Z,2.90
2023-01-19T04:32:09.212Z,2.93
2023-01-19T04:36:01.852Z,2.96
2023-01-19T04:39:55.117Z,2.98
2023-01-19T04:43:48.247Z,3.07
2023-01-19T04:47:42.766Z,3.03
2023-01-19T04:51:35.963Z,3.11
2023-01-19T04:55:28.719Z,3.14
2023-01-19T04:59:21.862Z,3.04
2023-01-19T05:03:14.415Z,3.01
2023-01-19T05:07:07.180Z,3.04
2023-01-19T05:11:00.222Z,3.09
2023-01-19T05:14:53.108Z,3.11
2023-01-19T05:18:45.870Z,3.17
2023-01-19T05:22:39.480Z,3.09
2023-01-19T05:26:31.941Z,3.17
2023-01-19T05:30:24.808Z,3.28
2023-01-19T05:34:17.761Z,3.29
2023-01-19T05:38:10.573Z,3.35
2023-01-19T05:42:03.523Z,3.18
2023-01-19T05:45:56.155Z,3.28
2023-01-19T05:49:48.823Z,3.24
2023-01-19T05:53:41.912Z,3.29
2023-01-19T05:57:35.261Z,3.31
2023-01-19T06:01:28.488Z,3.28
2023-01-19T06:05:21.351Z,3.35
2023-01-19T06:09:13.988Z,3.38
2023-01-19T06:13:07.251Z,3.34
2023-01-19T06:17:00.099Z,3.31
2023-01-19T06:20:58.735Z,3.25
2023-01-19T06:24:51.534Z,3.35
2023-01-19T06:28:44.341Z,3.39
2023-01-19T06:32:37.643Z,3.36
2023-01-19T06:36:30.153Z,3.42
2023-01-19T06:40:23.127Z,3.45
2023-01-19T06:44:15.793Z,3.51
2023-01-19T06:48:08.851Z,3.53
2023-01-19T06:52:01.478Z,3.59
2023-01-19T06:55:55.094Z,3.62
2023-01-19T06:59:49.219Z,3.62
2023-01-19T07:03:42.404Z,3.72
2023-01-19T07:07:35.995Z,3.74
2023-01-19T07:11:33.124Z,3.72
2023-01-19T07:15:26.255Z,3.73
2023-01-19T07:19:20.490Z,3.76
2023-01-19T07:23:13.634Z,3.77
2023-01-19T07:27:06.690Z,3.79
2023-01-19T07:30:59.745Z,3.70
2023-01-19T07:34:52.762Z,3.76
2023-01-19T07:38:45.386Z,3.90
2023-01-19T07:42:38.282Z,3.94
2023-01-19T07:46:30.920Z,4.00
2023-01-19T07:50:26.259Z,3.97
2023-01-19T07:54:18.844Z,4.02
2023-01-19T07:58:11.684Z,4.01
2023-01-19T08:02:04.776Z,4.01
2023-01-19T08:05:57.540Z,3.98
2023-01-19T08:09:50.237Z,4.01
2023-01-19T08:13:43.857Z,4.02
2023-01-19T08:17:36.982Z,4.04
2023-01-19T08:21:30.183Z,4.08
2023-01-19T08:25:23.829Z,4.07
2023-01-19T08:29:16.702Z,4.12
2023-01-19T08:33:09.444Z,4.10
2023-01-19T08:37:02.223Z,4.18
2023-01-19T08:40:55.066Z,4.19
2023-01-19T08:44:57.687Z,4.27
2023-01-19T08:48:51.057Z,4.22
2023-01-19T08:52:44.001Z,4.25
2023-01-19T08:56:36.947Z,4.25
2023-01-19T09:00:31.870Z,4.29
2023-01-19T09:04:25.213Z,4.38
2023-01-19T09:08:17.946Z,4.27
2023-01-19T09:12:10.912Z,4.29
2023-01-19T09:16:04.611Z,4.31
2023-01-19T09:19:57.539Z,4.34
2023-01-19T09:23:50.066Z,4.34
2023-01-19T09:27:43.440Z,4.38
2023-01-19T09:31:36.256Z,4.37
2023-01-19T09:35:29.049Z,4.46
2023-01-19T09:39:22.115Z,4.34
2023-01-19T09:43:28.997Z,4.38
2023-01-19T09:47:29.204Z,4.39
2023-01-19T09:51:28.269Z,4.31
2023-01-19T09:55:26.467Z,4.41
2023-01-19T09:59:29.193Z,4.37
2023-01-19T10:03:24.103Z,4.29
2023-01-19T10:07:26.142Z,4.34
2023-01-19T10:11:41.957Z,4.53
2023-01-19T10:16:11.795Z,4.38
2023-01-19T10:20:12.672Z,4.37
2023-01-19T10:24:16.368Z,4.41
2023-01-19T10:28:10.878Z,4.46
2023-01-19T10:32:31.410Z,4.42
2023-01-19T10:36:55.701Z,4.44
2023-01-19T10:41:19.765Z,4.44
2023-01-19T10:45:29.616Z,4.44
2023-01-19T10:49:27.206Z,4.49
2023-01-19T10:53:21.632Z,4.48
2023-01-19T10:57:32.367Z,4.55
2023-01-19T11:01:28.327Z,4.46
2023-01-19T11:05:23.796Z,4.53
2023-01-19T11:09:19.430Z,4.46
2023-01-19T11:13:15.852Z,4.39
2023-01-19T11:17:19.780Z,4.45
2023-01-19T11:21:17.422Z,4.41
2023-01-19T11:25:22.969Z,4.34
2023-01-19T11:29:26.806Z,4.35
2023-01-19T11:33:25.270Z,4.22
2023-01-19T11:37:21.145Z,4.29
2023-01-19T11:41:29.809Z,4.14
2023-01-19T11:45:23.364Z,4.19
2023-01-19T11:49:25.805Z,4.21
2023-01-19T11:53:18.429Z,4.32
2023-01-19T11:57:15.454Z,4.35
2023-01-19T12:01:21.262Z,4.44
2023-01-19T12:05:19.393Z,4.38
2023-01-19T12:09:18.795Z,4.34
2023-01-19T12:13:22.503Z,4.39
2023-01-19T12:17:26.036Z,4.35
2023-01-19T12:21:19.879Z,4.42
2023-01-19T12:25:25.058Z,4.38
2023-01-19T12:29:23.336Z,4.34
2023-01-19T12:33:37.952Z,4.37
2023-01-19T12:37:41.789Z,4.44
2023-01-19T12:41:38.874Z,4.53
2023-01-19T12:45:37.115Z,4.52
2023-01-19T12:49:41.007Z,4.65
2023-01-19T12:53:33.816Z,4.53
2023-01-19T12:57:34.294Z,4.45
2023-01-19T13:01:27.309Z,4.38
2023-01-19T13:05:33.158Z,4.45
2023-01-19T13:09:30.796Z,4.34
2023-01-19T13:13:33.861Z,4.46
2023-01-19T13:17:38.581Z,4.48
2023-01-19T13:21:45.200Z,4.45
2023-01-19T13:25:38.255Z,4.45
2023-01-19T13:29:41.441Z,4.49
2023-01-19T13:33:44.512Z,4.39
2023-01-19T13:37:41.706Z,4.31
2023-01-19T13:41:40.070Z,4.29
2023-01-19T13:45:37.420Z,4.25
2023-01-19T13:49:35.728Z,4.21
2023-01-19T13:53:29.521Z,4.10
2023-01-19T13:57:34.005Z,4.12
2023-01-19T14:01:29.251Z,3.94
2023-01-19T14:05:23.916Z,4.00
2023-01-19T14:09:19.627Z,3.89
2023-01-19T14:13:22.757Z,3.87
2023-01-19T14:17:29.499Z,3.81
2023-01-19T14:21:22.282Z,3.81
2023-01-19T14:25:39.794Z,3.69
2023-01-19T14:29:34.950Z,3.64
2023-01-19T14:33:46.427Z,3.70
2023-01-19T14:37:50.173Z,3.72
2023-01-19T14:41:49.215Z,3.60
2023-01-19T14:45:47.934Z,3.59
2023-01-19T14:49:46.400Z,3.59
2023-01-19T14:53:39.162Z,3.60
2023-01-19T14:57:33.903Z,3.40
2023-01-19T15:01:31.488Z,3.48
2023-01-19T15:05:24.355Z,3.40
2023-01-19T15:09:17.017Z,3.52
2023-01-19T15:13:21.003Z,3.48
2023-01-19T15:17:25.895Z,3.29
2023-01-19T15:21:31.973Z,3.28
2023-01-19T15:25:28.968Z,3.38
2023-01-19T15:29:26.410Z,3.24
2023-01-19T15:33:27.950Z,3.26
2023-01-19T15:37:20.454Z,3.32
2023-01-19T15:41:15.550Z,3.29
2023-01-19T15:45:26.671Z,3.24
2023-01-19T15:49:19.546Z,3.31
2023-01-19T15:53:18.195Z,3.28
2023-01-19T15:57:11.175Z,3.28
2023-01-19T16:01:04.030Z,3.36
2023-01-19T16:04:56.903Z,3.29
2023-01-19T16:08:49.727Z,3.31
2023-01-19T16:12:43.226Z,3.24
2023-01-19T16:16:36.314Z,3.19
2023-01-19T16:20:29.556Z,3.26
2023-01-19T16:24:22.400Z,3.32
2023-01-19T16:28:15.114Z,3.38
2023-01-19T16:32:08.001Z,3.45
2023-01-19T16:36:27.625Z,3.28
2023-01-19T16:40:20.794Z,3.15
2023-01-19T16:44:15.388Z,3.17
2023-01-19T16:48:08.476Z,3.18
2023-01-19T16:52:01.567Z,3.25
2023-01-19T16:55:54.427Z,3.15
2023-01-19T16:59:47.360Z,3.25
2023-01-19T17:03:41.805Z,3.36
2023-01-19T17:07:35.162Z,3.25
2023-01-19T17:11:31.499Z,3.19
2023-01-19T17:15:26.542Z,3.19
2023-01-19T17:19:22.277Z,3.26
2023-01-19T17:23:19.516Z,3.15
2023-01-19T17:27:13.436Z,3.01
2023-01-19T17:31:19.592Z,3.09
2023-01-19T17:35:13.561Z,3.14
2023-01-19T17:39:14.999Z,2.96
2023-01-19T17:43:09.260Z,2.98
2023-01-19T17:47:04.266Z,2.97
2023-01-19T17:51:10.125Z,2.97
2023-01-19T17:55:05.415Z,2.77
2023-01-19T17:58:59.931Z,2.87
2023-01-19T18:02:54.114Z,2.87
2023-01-19T18:06:50.804Z,2.93
2023-01-19T18:10:44.564Z,2.84
2023-01-19T18:14:38.791Z,3.01
2023-01-19T18:18:33.114Z,2.87
2023-01-19T18:22:27.324Z,2.91
2023-01-19T18:26:23.212Z,2.88
2023-01-19T18:30:17.281Z,3.00
2023-01-19T18:34:11.247Z,2.90
2023-01-19T18:38:05.685Z,2.83
2023-01-19T18:42:01.275Z,2.86
2023-01-19T18:45:55.787Z,2.79
2023-01-19T18:49:50.391Z,2.75
2023-01-19T18:53:45.278Z,2.73
2023-01-19T18:57:38.978Z,2.70
2023-01-19T19:01:35.742Z,2.81
2023-01-19T19:05:32.252Z,2.76
2023-01-19T19:09:26.322Z,2.90
2023-01-19T19:13:22.618Z,2.75
2023-01-19T19:17:16.463Z,2.72
2023-01-19T19:21:12.587Z,2.72
2023-01-19T19:25:07.121Z,2.81
2023-01-19T19:29:01.670Z,2.79
2023-01-19T19:33:00.941Z,2.86
2023-01-19T19:36:55.249Z,2.73
2023-01-19T19:40:49.792Z,2.61
2023-01-19T19:44:44.218Z,2.61
2023-01-19T19:48:39.421Z,2.59
2023-01-19T19:52:39.351Z,2.54
2023-01-19T19:56:34.985Z,2.64
2023-01-19T20:00:29.970Z,2.72
2023-01-19T20:04:25.878Z,2.61
2023-01-19T20:08:21.326Z,2.66
2023-01-19T20:12:18.353Z,2.66
2023-01-19T20:16:16.481Z,2.52
2023-01-19T20:20:11.837Z,2.56
2023-01-19T20:24:15.787Z,2.53
2023-01-19T20:28:10.015Z,2.63
2023-01-19T20:32:03.557Z,2.45
2023-01-19T20:35:57.692Z,2.46
2023-01-19T20:39:53.027Z,2.29
2023-01-19T20:43:47.632Z,2.38
2023-01-19T20:47:43.695Z,2.36
2023-01-19T20:51:43.619Z,2.43
2023-01-19T20:55:38.298Z,2.42
2023-01-19T20:59:34.809Z,2.41
2023-01-19T21:03:29.852Z,2.32
2023-01-19T21:07:23.305Z,2.59
2023-01-19T21:11:24.490Z,2.45
2023-01-19T21:15:19.566Z,2.36
2023-01-19T21:19:12.981Z,2.29
2023-01-19T21:23:07.530Z,2.20
2023-01-19T21:27:03.256Z,2.18
2023-01-19T21:30:57.585Z,2.18
2023-01-19T21:34:53.738Z,2.22
2023-01-19T21:38:46.575Z,2.24
2023-01-19T21:42:40.644Z,2.17
2023-01-19T21:46:34.085Z,2.10
2023-01-19T21:50:30.192Z,2.25
2023-01-19T21:54:22.810Z,2.26
2023-01-19T21:58:15.444Z,2.28
2023-01-19T22:02:11.522Z,2.11
2023-01-19T22:06:06.342Z,2.08
2023-01-19T22:09:59.035Z,2.08
2023-01-19T22:13:52.376Z,2.07
2023-01-19T22:17:45.165Z,2.04
2023-01-19T22:21:38.037Z,2.08
2023-01-19T22:25:32.922Z,2.17
2023-01-19T22:29:25.619Z,2.15
2023-01-19T22:33:18.227Z,2.11
2023-01-19T22:37:10.865Z,2.07
2023-01-19T22:41:46.405Z,2.11
2023-01-19T22:45:41.675Z,2.10
2023-01-19T22:49:34.575Z,2.15
2023-01-19T22:53:27.246Z,2.04
2023-01-19T22:57:19.880Z,2.04
2023-01-19T23:01:15.272Z,2.11
2023-01-19T23:05:08.237Z,2.04
2023-01-19T23:09:04.336Z,2.14
2023-01-19T23:12:57.570Z,2.05
2023-01-19T23:16:50.242Z,2.01
2023-01-19T23:20:42.875Z,1.97
2023-01-19T23:24:35.637Z,1.90
2023-01-19T23:28:28.641Z,1.80
2023-01-19T23:32:21.444Z,1.70
2023-01-19T23:36:15.105Z,1.78
2023-01-19T23:40:10.050Z,1.74
2023-01-19T23:44:03.324Z,1.80
2023-01-19T23:47:55.736Z,1.74
2023-01-19T23:51:48.584Z,1.81
2023-01-19T23:55:42.165Z,1.77
2023-01-19T23:59:35.461Z,1.70
